createdAt,value
2023-01-19T00:00:19.410Z,-2.67
2023-01-19T00:01:21.135Z,-2.69
2023-01-19T00:02:22.939Z,-2.72
2023-01-19T00:03:24.613Z,-2.73
2023-01-19T00:04:26.322Z,-2.76
2023-01-19T00:05:28.064Z,-2.77
2023-01-19T00:06:29.863Z,-2.78
2023-01-19T00:07:31.567Z,-2.79
2023-01-19T00:08:33.257Z,-2.8
2023-01-19T00:09:34.994Z,-2.8
2023-01-19T00:10:36.717Z,-2.82
2023-01-19T00:11:38.458Z,-2.82
2023-01-19T00:12:40.428Z,-2.82
2023-01-19T00:13:41.931Z,-2.8
2023-01-19T00:14:43.712Z,-2.8
2023-01-19T00:15:45.409Z,-2.82
2023-01-19T00:16:47.135Z,-2.81
2023-01-19T00:17:48.891Z,-2.8
2023-01-19T00:18:50.600Z,-2.81
2023-01-19T00:19:52.338Z,-2.82
2023-01-19T00:20:54.077Z,-2.82
2023-01-19T00:21:55.802Z,-2.82
2023-01-19T00:22:58.011Z,-2.8
2023-01-19T00:23:59.277Z,-2.81
2023-01-19T00:25:01.003Z,-2.8
2023-01-19T00:26:02.745Z,-2.79
2023-01-19T00:27:04.458Z,-2.81
2023-01-19T00:28:06.237Z,-2.8
2023-01-19T00:29:07.935Z,-2.79
2023-01-19T00:30:09.663Z,-2.8
2023-01-19T00:31:11.426Z,-2.79
2023-01-19T00:32:13.139Z,-2.79
2023-01-19T00:33:14.881Z,-2.8
2023-01-19T00:34:16.611Z,-2.79
2023-01-19T00:35:18.413Z,-2.79
2023-01-19T00:36:20.089Z,-2.8
2023-01-19T00:37:21.810Z,-2.78
2023-01-19T00:38:23.570Z,-2.78
2023-01-19T00:39:25.261Z,-2.78
2023-01-19T00:40:27.014Z,-2.8
2023-01-19T00:41:28.739Z,-2.79
2023-01-19T00:42:30.462Z,-2.79
2023-01-19T00:43:32.198Z,-2.79
2023-01-19T00:44:33.945Z,-2.79
2023-01-19T00:45:35.749Z,-2.79
2023-01-19T00:46:37.421Z,-2.78
2023-01-19T00:47:39.143Z,-2.79
2023-01-19T00:48:40.888Z,-2.78
2023-01-19T00:49:42.610Z,-2.79
2023-01-19T00:50:44.341Z,-2.76
2023-01-19T00:51:46.085Z,-2.73
2023-01-19T00:52:47.820Z,-2.71
2023-01-19T00:53:49.543Z,-2.7
2023-01-19T00:54:51.274Z,-2.69
2023-01-19T00:55:53.023Z,-2.64
2023-01-19T00:56:54.753Z,-2.62
2023-01-19T00:57:56.475Z,-2.63
2023-01-19T00:58:58.231Z,-2.63
2023-01-19T00:59:59.963Z,-2.62
2023-01-19T01:01:01.777Z,-2.61
2023-01-19T01:02:03.651Z,-2.62
2023-01-19T01:03:05.426Z,-2.62
2023-01-19T01:04:06.891Z,-2.62
2023-01-19T01:05:08.612Z,-2.62
2023-01-19T01:06:10.339Z,-2.64
2023-01-19T01:07:12.079Z,-2.64
2023-01-19T01:08:13.818Z,-2.63
2023-01-19T01:09:15.550Z,-2.65
2023-01-19T01:10:17.272Z,-2.63
2023-01-19T01:11:19.038Z,-2.63
2023-01-19T01:12:20.749Z,-2.63
2023-01-19T01:13:24.721Z,-2.64
2023-01-19T01:14:24.222Z,-2.64
2023-01-19T01:15:25.948Z,-2.64
2023-01-19T01:16:27.710Z,-2.66
2023-01-19T01:17:29.408Z,-2.66
2023-01-19T01:18:31.151Z,-2.67
2023-01-19T01:19:32.894Z,-2.65
2023-01-19T01:20:34.614Z,-2.66
2023-01-19T01:21:36.344Z,-2.65
2023-01-19T01:22:38.078Z,-2.66
2023-01-19T01:23:39.806Z,-2.66
2023-01-19T01:24:41.547Z,-2.65
2023-01-19T01:25:43.269Z,-2.67
2023-01-19T01:26:45.007Z,-2.66
2023-01-19T01:27:46.745Z,-2.67
2023-01-19T01:28:48.487Z,-2.67
2023-01-19T01:29:50.220Z,-2.67
2023-01-19T01:30:51.942Z,-2.68
2023-01-19T01:31:53.719Z,-2.67
2023-01-19T01:32:55.426Z,-2.68
2023-01-19T01:33:57.141Z,-2.69
2023-01-19T01:34:58.882Z,-2.71
2023-01-19T01:36:00.619Z,-2.71
2023-01-19T01:37:02.347Z,-2.72
2023-01-19T01:38:04.093Z,-2.73
2023-01-19T01:39:05.835Z,-2.75
2023-01-19T01:40:07.567Z,-2.74
2023-01-19T01:41:09.281Z,-2.75
2023-01-19T01:42:11.016Z,-2.75
2023-01-19T01:43:12.773Z,-2.77
2023-01-19T01:44:14.485Z,-2.76
2023-01-19T01:45:16.221Z,-2.76
2023-01-19T01:46:18.111Z,-2.78
2023-01-19T01:47:19.695Z,-2.78
2023-01-19T01:48:21.446Z,-2.78
2023-01-19T01:49:23.148Z,-2.8
2023-01-19T01:50:24.899Z,-2.8
2023-01-19T01:51:26.644Z,-2.81
2023-01-19T01:52:28.357Z,-2.82
2023-01-19T01:53:30.087Z,-2.83
2023-01-19T01:54:31.824Z,-2.84
2023-01-19T01:55:33.569Z,-2.84
2023-01-19T01:56:35.293Z,-2.85
2023-01-19T01:57:37.011Z,-2.84
2023-01-19T01:58:38.775Z,-2.85
2023-01-19T01:59:40.492Z,-2.85
2023-01-19T02:00:42.214Z,-2.85
2023-01-19T02:01:44.120Z,-2.86
2023-01-19T02:02:45.686Z,-2.88
2023-01-19T02:03:47.419Z,-2.89
2023-01-19T02:04:49.154Z,-2.89
2023-01-19T02:05:50.912Z,-2.9
2023-01-19T02:06:52.614Z,-2.91
2023-01-19T02:07:54.346Z,-2.91
2023-01-19T02:08:56.079Z,-2.92
2023-01-19T02:09:57.822Z,-2.93
2023-01-19T02:10:59.563Z,-2.93
2023-01-19T02:12:01.286Z,-2.95
2023-01-19T02:13:03.438Z,-2.95
2023-01-19T02:14:04.755Z,-2.96
2023-01-19T02:15:06.474Z,-2.97
2023-01-19T02:16:08.243Z,-2.98
2023-01-19T02:17:09.951Z,-2.99
2023-01-19T02:18:11.697Z,-2.99
2023-01-19T02:19:13.436Z,-2.98
2023-01-19T02:20:15.147Z,-2.98
2023-01-19T02:21:16.880Z,-2.98
2023-01-19T02:22:18.604Z,-2.97
2023-01-19T02:23:20.375Z,-2.98
2023-01-19T02:24:22.079Z,-2.97
2023-01-19T02:25:23.824Z,-2.97
2023-01-19T02:26:25.559Z,-2.97
2023-01-19T02:27:27.280Z,-2.96
2023-01-19T02:28:29.018Z,-2.97
2023-01-19T02:29:30.756Z,-2.97
2023-01-19T02:30:32.536Z,-2.97
2023-01-19T02:31:34.223Z,-2.99
2023-01-19T02:32:35.958Z,-2.99
2023-01-19T02:33:37.685Z,-2.99
2023-01-19T02:34:39.420Z,-2.98
2023-01-19T02:35:41.157Z,-3
2023-01-19T02:36:42.907Z,-3
2023-01-19T02:37:44.655Z,-3.02
2023-01-19T02:38:46.354Z,-3.03
2023-01-19T02:39:48.086Z,-3.04
2023-01-19T02:40:49.818Z,-3.04
2023-01-19T02:41:51.579Z,-3.06
2023-01-19T02:42:53.293Z,-3.05
2023-01-19T02:43:55.013Z,-3.07
2023-01-19T02:44:56.767Z,-3.07
2023-01-19T02:45:58.536Z,-3.08
2023-01-19T02:47:00.215Z,-3.08
2023-01-19T02:48:01.951Z,-3.09
2023-01-19T02:49:03.740Z,-3.09
2023-01-19T02:50:05.437Z,-3.09
2023-01-19T02:51:07.157Z,-3.07
2023-01-19T02:52:08.886Z,-3.07
2023-01-19T02:53:10.639Z,-3.04
2023-01-19T02:54:12.359Z,-3.04
2023-01-19T02:55:14.086Z,-3.02
2023-01-19T02:56:15.820Z,-3.02
2023-01-19T02:57:17.604Z,-3
2023-01-19T02:58:19.298Z,-2.99
2023-01-19T02:59:21.023Z,-3
2023-01-19T03:00:22.777Z,-3
2023-01-19T03:01:24.604Z,-3
2023-01-19T03:02:26.328Z,-3.01
2023-01-19T03:03:28.030Z,-3
2023-01-19T03:04:29.716Z,-3.02
2023-01-19T03:05:31.425Z,-3.02
2023-01-19T03:06:33.203Z,-3.04
2023-01-19T03:07:34.897Z,-3.05
2023-01-19T03:08:36.632Z,-3.05
2023-01-19T03:09:38.365Z,-3.06
2023-01-19T03:10:40.120Z,-3.07
2023-01-19T03:11:41.839Z,-3.08
2023-01-19T03:12:43.576Z,-3.1
2023-01-19T03:13:45.305Z,-3.13
2023-01-19T03:14:47.033Z,-3.15
2023-01-19T03:15:48.859Z,-3.16
2023-01-19T03:16:50.544Z,-3.2
2023-01-19T03:17:52.240Z,-3.2
2023-01-19T03:18:53.982Z,-3.23
2023-01-19T03:19:55.692Z,-3.25
2023-01-19T03:20:57.446Z,-3.26
2023-01-19T03:21:59.186Z,-3.28
2023-01-19T03:23:01.260Z,-3.28
2023-01-19T03:24:02.641Z,-3.3
2023-01-19T03:25:04.381Z,-3.31
2023-01-19T03:26:06.114Z,-3.33
2023-01-19T03:27:07.842Z,-3.34
2023-01-19T03:28:09.616Z,-3.34
2023-01-19T03:29:11.316Z,-3.33
2023-01-19T03:30:13.058Z,-3.34
2023-01-19T03:31:14.893Z,-3.34
2023-01-19T03:32:16.504Z,-3.34
2023-01-19T03:33:18.242Z,-3.34
2023-01-19T03:34:19.988Z,-3.34
2023-01-19T03:35:21.716Z,-3.33
2023-01-19T03:36:23.443Z,-3.33
2023-01-19T03:37:25.183Z,-3.33
2023-01-19T03:38:26.905Z,-3.31
2023-01-19T03:39:28.931Z,-3.32
2023-01-19T03:40:30.385Z,-3.31
2023-01-19T03:41:32.122Z,-3.31
2023-01-19T03:42:33.853Z,-3.3
2023-01-19T03:43:35.628Z,-3.27
2023-01-19T03:44:37.341Z,-3.27
2023-01-19T03:45:39.075Z,-3.24
2023-01-19T03:46:40.762Z,-3.21
2023-01-19T03:47:42.514Z,-3.2
2023-01-19T03:48:44.250Z,-3.15
2023-01-19T03:49:45.985Z,-3.12
2023-01-19T03:50:47.714Z,-3.08
2023-01-19T03:51:49.442Z,-3.05
2023-01-19T03:52:51.183Z,-3.02
2023-01-19T03:53:52.908Z,-2.98
2023-01-19T03:54:54.634Z,-2.94
2023-01-19T03:55:56.384Z,-2.92
2023-01-19T03:56:58.111Z,-2.89
2023-01-19T03:57:59.852Z,-2.84
2023-01-19T03:59:01.608Z,-2.82
2023-01-19T04:00:03.337Z,-2.8
2023-01-19T04:01:05.131Z,-2.77
2023-01-19T04:02:06.871Z,-2.74
2023-01-19T04:03:08.623Z,-2.71
2023-01-19T04:04:10.278Z,-2.68
2023-01-19T04:05:11.978Z,-2.66
2023-01-19T04:06:13.734Z,-2.63
2023-01-19T04:07:15.443Z,-2.61
2023-01-19T04:08:17.183Z,-2.6
2023-01-19T04:09:20.104Z,-2.57
2023-01-19T04:10:20.689Z,-2.55
2023-01-19T04:11:22.409Z,-2.51
2023-01-19T04:12:24.159Z,-2.5
2023-01-19T04:13:25.866Z,-2.47
2023-01-19T04:14:27.612Z,-2.46
2023-01-19T04:15:29.329Z,-2.44
2023-01-19T04:16:31.060Z,-2.4
2023-01-19T04:17:32.813Z,-2.39
2023-01-19T04:18:34.902Z,-2.37
2023-01-19T04:19:36.288Z,-2.36
2023-01-19T04:20:38.011Z,-2.33
2023-01-19T04:21:39.737Z,-2.31
2023-01-19T04:22:41.486Z,-2.29
2023-01-19T04:23:43.191Z,-2.29
2023-01-19T04:24:44.988Z,-2.26
2023-01-19T04:25:46.676Z,-2.23
2023-01-19T04:26:48.399Z,-2.22
2023-01-19T04:27:50.121Z,-2.21
2023-01-19T04:28:51.866Z,-2.19
2023-01-19T04:29:53.617Z,-2.18
2023-01-19T04:30:55.389Z,-2.17
2023-01-19T04:31:57.100Z,-2.15
2023-01-19T04:32:59.188Z,-2.15
2023-01-19T04:34:00.542Z,-2.13
2023-01-19T04:35:02.270Z,-2.11
2023-01-19T04:36:04.060Z,-2.11
2023-01-19T04:37:05.739Z,-2.1
2023-01-19T04:38:07.539Z,-2.08
2023-01-19T04:39:09.215Z,-2.07
2023-01-19T04:40:10.946Z,-2.07
2023-01-19T04:41:12.688Z,-2.06
2023-01-19T04:42:14.404Z,-2.06
2023-01-19T04:43:16.177Z,-2.05
2023-01-19T04:44:17.868Z,-2.04
2023-01-19T04:45:19.611Z,-2.04
2023-01-19T04:46:21.398Z,-2.02
2023-01-19T04:47:23.057Z,-2.01
2023-01-19T04:48:24.834Z,-2
2023-01-19T04:49:26.538Z,-2
2023-01-19T04:50:28.277Z,-1.98
2023-01-19T04:51:30.096Z,-1.98
2023-01-19T04:52:31.741Z,-1.98
2023-01-19T04:53:33.505Z,-1.96
2023-01-19T04:54:35.278Z,-1.95
2023-01-19T04:55:36.954Z,-1.96
2023-01-19T04:56:38.669Z,-1.94
2023-01-19T04:57:40.407Z,-1.94
2023-01-19T04:58:42.150Z,-1.94
2023-01-19T04:59:43.880Z,-1.92
2023-01-19T05:00:45.626Z,-1.9
2023-01-19T05:01:47.383Z,-1.91
2023-01-19T05:02:49.099Z,-1.91
2023-01-19T05:03:50.838Z,-1.9
2023-01-19T05:04:52.542Z,-1.89
2023-01-19T05:05:54.290Z,-1.9
2023-01-19T05:06:56.023Z,-1.89
2023-01-19T05:07:57.744Z,-1.88
2023-01-19T05:08:59.490Z,-1.86
2023-01-19T05:10:01.211Z,-1.87
2023-01-19T05:11:02.962Z,-1.86
2023-01-19T05:12:04.674Z,-1.86
2023-01-19T05:13:06.428Z,-1.85
2023-01-19T05:14:08.141Z,-1.85
2023-01-19T05:15:09.892Z,-1.85
2023-01-19T05:16:11.714Z,-1.84
2023-01-19T05:17:13.337Z,-1.85
2023-01-19T05:18:15.116Z,-1.84
2023-01-19T05:19:16.825Z,-1.84
2023-01-19T05:20:18.576Z,-1.83
2023-01-19T05:21:20.308Z,-1.83
2023-01-19T05:22:22.011Z,-1.84
2023-01-19T05:23:23.747Z,-1.83
2023-01-19T05:24:25.515Z,-1.83
2023-01-19T05:25:27.231Z,-1.83
2023-01-19T05:26:28.968Z,-1.82
2023-01-19T05:27:30.692Z,-1.83
2023-01-19T05:28:32.416Z,-1.83
2023-01-19T05:29:34.173Z,-1.81
2023-01-19T05:30:35.941Z,-1.82
2023-01-19T05:31:37.666Z,-1.81
2023-01-19T05:32:39.351Z,-1.8
2023-01-19T05:33:41.099Z,-1.79
2023-01-19T05:34:42.831Z,-1.8
2023-01-19T05:35:44.565Z,-1.8
2023-01-19T05:36:46.298Z,-1.78
2023-01-19T05:37:48.023Z,-1.78
2023-01-19T05:38:49.756Z,-1.77
2023-01-19T05:39:51.487Z,-1.75
2023-01-19T05:40:53.218Z,-1.76
2023-01-19T05:41:55.175Z,-1.74
2023-01-19T05:42:56.694Z,-1.73
2023-01-19T05:43:58.436Z,-1.72
2023-01-19T05:45:00.232Z,-1.72
2023-01-19T05:46:01.901Z,-1.7
2023-01-19T05:47:03.643Z,-1.7
2023-01-19T05:48:05.362Z,-1.69
2023-01-19T05:49:07.093Z,-1.68
2023-01-19T05:50:08.832Z,-1.67
2023-01-19T05:51:10.567Z,-1.67
2023-01-19T05:52:12.328Z,-1.66
2023-01-19T05:53:14.047Z,-1.66
2023-01-19T05:54:15.767Z,-1.64
2023-01-19T05:55:17.515Z,-1.64
2023-01-19T05:56:19.240Z,-1.64
2023-01-19T05:57:20.970Z,-1.63
2023-01-19T05:58:22.710Z,-1.63
2023-01-19T05:59:24.505Z,-1.62
2023-01-19T06:00:26.165Z,-1.6
2023-01-19T06:01:27.935Z,-1.62
2023-01-19T06:02:29.755Z,-1.6
2023-01-19T06:03:31.471Z,-1.6
2023-01-19T06:04:33.125Z,-1.58
2023-01-19T06:05:34.841Z,-1.58
2023-01-19T06:06:36.564Z,-1.57
2023-01-19T06:09:16.457Z,-1.57
2023-01-19T06:11:17.670Z,-1.56
2023-01-19T06:12:19.383Z,-1.56
2023-01-19T06:13:20.442Z,-1.55
2023-01-19T06:14:22.855Z,-1.56
2023-01-19T06:15:24.602Z,-1.55
2023-01-19T06:16:26.394Z,-1.55
2023-01-19T06:17:28.039Z,-1.55
2023-01-19T06:18:29.790Z,-1.54
2023-01-19T06:19:31.507Z,-1.53
2023-01-19T06:20:33.263Z,-1.55
2023-01-19T06:21:35.002Z,-1.52
2023-01-19T06:22:36.724Z,-1.52
2023-01-19T06:23:38.435Z,-1.51
2023-01-19T06:24:40.188Z,-1.5
2023-01-19T06:25:41.917Z,-1.5
2023-01-19T06:26:43.679Z,-1.49
2023-01-19T06:27:45.389Z,-1.49
2023-01-19T06:28:47.111Z,-1.47
2023-01-19T06:29:48.877Z,-1.46
2023-01-19T06:30:50.623Z,-1.45
2023-01-19T06:31:52.422Z,-1.43
2023-01-19T06:32:54.040Z,-1.43
2023-01-19T06:33:55.792Z,-1.43
2023-01-19T06:34:57.531Z,-1.41
2023-01-19T06:35:59.261Z,-1.41
2023-01-19T06:37:00.998Z,-1.39
2023-01-19T06:38:02.788Z,-1.39
2023-01-19T06:39:04.445Z,-1.39
2023-01-19T06:40:06.211Z,-1.37
2023-01-19T06:41:07.931Z,-1.36
2023-01-19T06:42:09.655Z,-1.37
2023-01-19T06:43:11.391Z,-1.36
2023-01-19T06:44:13.135Z,-1.35
2023-01-19T06:45:14.846Z,-1.35
2023-01-19T06:46:16.645Z,-1.35
2023-01-19T06:47:18.570Z,-1.35
2023-01-19T06:48:20.073Z,-1.36
2023-01-19T06:49:21.096Z,-1.34
2023-01-19T06:50:23.533Z,-1.35
2023-01-19T06:51:26.862Z,-1.35
2023-01-19T06:52:26.998Z,-1.33
2023-01-19T06:53:28.736Z,-1.33
2023-01-19T06:54:30.451Z,-1.34
2023-01-19T06:55:32.220Z,-1.34
2023-01-19T06:56:33.941Z,-1.34
2023-01-19T06:57:35.684Z,-1.33
2023-01-19T06:58:37.421Z,-1.33
2023-01-19T07:00:03.410Z,-1.31
2023-01-19T07:01:05.223Z,-1.31
2023-01-19T07:02:34.963Z,-1.29
2023-01-19T07:08:25.752Z,-1.24
2023-01-19T07:09:27.482Z,-1.21
2023-01-19T07:11:26.784Z,-1.21
2023-01-19T07:11:55.478Z,-1.2
2023-01-19T07:12:59.061Z,-1.18
2023-01-19T07:14:10.620Z,-1.17
2023-01-19T07:15:28.923Z,-1.16
2023-01-19T07:20:40.318Z,-1.11
2023-01-19T07:21:42.022Z,-1.1
2023-01-19T07:22:43.756Z,-1.09
2023-01-19T07:23:45.485Z,-1.08
2023-01-19T07:24:47.254Z,-1.08
2023-01-19T07:25:48.939Z,-1.08
2023-01-19T07:26:50.690Z,-1.07
2023-01-19T07:27:52.453Z,-1.06
2023-01-19T07:28:54.222Z,-1.05
2023-01-19T07:29:56.197Z,-1.05
2023-01-19T07:31:48.473Z,-1.03
2023-01-19T07:32:48.648Z,-1.03
2023-01-19T07:33:51.403Z,-1.03
2023-01-19T07:34:52.090Z,-1.02
2023-01-19T07:35:53.827Z,-1.01
2023-01-19T07:36:55.558Z,-1.01
2023-01-19T07:37:57.303Z,-1
2023-01-19T07:39:24.759Z,-1.01
2023-01-19T07:40:26.485Z,-1
2023-01-19T07:41:28.210Z,-0.99
2023-01-19T07:42:29.983Z,-0.98
2023-01-19T07:43:31.671Z,-0.98
2023-01-19T07:44:33.432Z,-0.98
2023-01-19T07:45:35.172Z,-0.97
2023-01-19T07:46:36.882Z,-0.94
2023-01-19T07:47:38.626Z,-0.91
2023-01-19T07:48:40.365Z,-0.89
2023-01-19T07:49:42.115Z,-0.88
2023-01-19T07:51:12.886Z,-0.88
2023-01-19T07:52:11.955Z,-0.85
2023-01-19T07:53:37.191Z,-0.84
2023-01-19T07:55:03.426Z,-0.82
2023-01-19T07:56:03.702Z,-0.81
2023-01-19T07:57:04.968Z,-0.83
2023-01-19T07:58:07.188Z,-0.83
2023-01-19T07:59:08.937Z,-0.84
2023-01-19T08:00:16.183Z,-0.85
2023-01-19T08:01:17.555Z,-0.88
2023-01-19T08:02:19.400Z,-0.88
2023-01-19T08:03:25.216Z,-0.9
2023-01-19T08:04:28.233Z,-0.91
2023-01-19T08:05:29.913Z,-0.93
2023-01-19T08:06:31.621Z,-0.97
2023-01-19T08:07:33.363Z,-0.98
2023-01-19T08:08:35.085Z,-1
2023-01-19T08:10:32.368Z,-1.04
2023-01-19T08:11:34.126Z,-1.05
2023-01-19T08:12:35.819Z,-1.08
2023-01-19T08:13:37.553Z,-1.11
2023-01-19T08:14:39.313Z,-1.12
2023-01-19T08:15:41.064Z,-1.15
2023-01-19T08:16:42.768Z,-1.17
2023-01-19T08:17:48.560Z,-1.19
2023-01-19T08:18:51.380Z,-1.21
2023-01-19T08:19:53.138Z,-1.24
2023-01-19T08:20:59.310Z,-1.24
2023-01-19T08:22:02.039Z,-1.25
2023-01-19T08:23:07.807Z,-1.25
2023-01-19T08:24:10.432Z,-1.2
2023-01-19T08:25:12.163Z,-1.13
2023-01-19T08:26:13.889Z,-1.07
2023-01-19T08:27:15.614Z,-0.99
2023-01-19T08:28:17.342Z,-0.91
2023-01-19T08:29:19.115Z,-0.83
2023-01-19T08:30:20.822Z,-0.74
2023-01-19T08:31:24.732Z,-0.66
2023-01-19T08:32:24.387Z,-0.57
2023-01-19T08:33:26.013Z,-0.48
2023-01-19T08:34:27.788Z,-0.39
2023-01-19T08:35:59.518Z,-0.26
2023-01-19T08:37:00.894Z,-0.16
2023-01-19T08:38:02.622Z,-0.07
2023-01-19T08:39:04.362Z,0.01
2023-01-19T08:40:06.088Z,0.12
2023-01-19T08:41:07.863Z,0.21
2023-01-19T08:42:31.104Z,0.33
2023-01-19T08:43:31.870Z,0.43
2023-01-19T08:44:32.851Z,0.52
2023-01-19T08:45:48.461Z,0.63
2023-01-19T08:46:50.601Z,0.71
2023-01-19T08:47:51.931Z,0.82
2023-01-19T08:49:04.063Z,0.92
2023-01-19T08:50:05.768Z,0.99
2023-01-19T08:51:07.625Z,1.07
2023-01-19T08:52:09.316Z,1.12
2023-01-19T08:53:45.897Z,1.23
2023-01-19T08:54:48.586Z,1.32
2023-01-19T08:55:50.304Z,1.4
2023-01-19T08:56:52.078Z,1.46
2023-01-19T08:57:53.795Z,1.52
2023-01-19T08:59:08.751Z,1.61
2023-01-19T08:59:57.333Z,1.69
2023-01-19T09:00:59.093Z,1.78
2023-01-19T09:02:00.917Z,1.84
2023-01-19T09:03:03.088Z,1.85
2023-01-19T09:04:04.259Z,1.86
2023-01-19T09:05:05.995Z,1.88
2023-01-19T09:06:07.734Z,1.91
2023-01-19T09:07:35.742Z,1.97
2023-01-19T09:08:36.533Z,2
2023-01-19T09:09:39.296Z,1.99
2023-01-19T09:10:40.014Z,1.98
2023-01-19T09:11:41.759Z,1.96
2023-01-19T09:12:47.798Z,1.93
2023-01-19T09:13:50.449Z,1.91
2023-01-19T09:14:52.234Z,1.85
2023-01-19T09:15:54.034Z,1.84
2023-01-19T09:16:55.634Z,1.82
2023-01-19T09:17:57.510Z,1.82
2023-01-19T09:19:09.568Z,1.93
2023-01-19T09:20:11.217Z,1.97
2023-01-19T09:21:13.033Z,1.95
2023-01-19T09:22:15.971Z,1.97
2023-01-19T09:24:39.193Z,2.13
2023-01-19T09:26:23.140Z,2.17
2023-01-19T09:28:18.046Z,2.36
2023-01-19T09:30:10.863Z,2.53
2023-01-19T09:31:14.145Z,2.55
2023-01-19T09:32:15.760Z,2.57
2023-01-19T09:33:17.479Z,2.55
2023-01-19T09:34:21.587Z,2.65
2023-01-19T09:35:26.100Z,2.74
2023-01-19T09:36:27.807Z,2.83
2023-01-19T09:37:29.563Z,2.91
2023-01-19T09:38:31.294Z,2.97
2023-01-19T09:39:33.062Z,2.94
2023-01-19T09:40:34.777Z,2.9
2023-01-19T09:41:36.580Z,2.84
2023-01-19T09:42:38.330Z,2.8
2023-01-19T09:43:40.105Z,2.7
2023-01-19T09:44:42.266Z,2.64
2023-01-19T09:46:04.094Z,2.5
2023-01-19T09:47:04.299Z,2.44
2023-01-19T09:48:06.024Z,2.32
2023-01-19T09:49:07.741Z,2.22
2023-01-19T09:50:09.469Z,2.13
2023-01-19T09:52:23.217Z,2.01
2023-01-19T09:53:25.575Z,1.95
2023-01-19T09:54:26.379Z,1.9
2023-01-19T09:55:29.041Z,1.86
2023-01-19T09:56:30.778Z,1.85
2023-01-19T09:57:32.520Z,1.83
2023-01-19T09:58:34.310Z,1.79
2023-01-19T10:00:45.481Z,1.78
2023-01-19T10:01:47.878Z,1.78
2023-01-19T10:02:49.621Z,1.79
2023-01-19T10:04:31.403Z,1.79
2023-01-19T10:05:38.378Z,1.79
2023-01-19T10:06:41.429Z,1.79
2023-01-19T10:07:41.836Z,1.82
2023-01-19T10:08:43.589Z,1.82
2023-01-19T10:09:45.365Z,1.8
2023-01-19T10:10:48.559Z,1.79
2023-01-19T10:11:53.139Z,1.79
2023-01-19T10:12:50.527Z,1.77
2023-01-19T10:15:24.736Z,1.75
2023-01-19T10:16:32.087Z,1.7
2023-01-19T10:17:35.975Z,1.69
2023-01-19T10:18:36.457Z,1.67
2023-01-19T10:19:38.201Z,1.63
2023-01-19T10:20:41.337Z,1.63
2023-01-19T10:21:41.639Z,1.59
2023-01-19T10:22:45.326Z,1.6
2023-01-19T10:23:49.319Z,1.59
2023-01-19T10:24:51.984Z,1.58
2023-01-19T10:26:00.815Z,1.57
2023-01-19T10:27:05.736Z,1.53
2023-01-19T10:28:07.442Z,1.52
2023-01-19T10:29:10.939Z,1.5
2023-01-19T10:30:10.921Z,1.5
2023-01-19T10:31:12.732Z,1.48
2023-01-19T10:32:14.554Z,1.49
2023-01-19T10:33:16.136Z,1.51
2023-01-19T10:35:30.379Z,1.63
2023-01-19T10:38:35.927Z,1.76
2023-01-19T10:39:38.798Z,1.78
2023-01-19T10:40:39.429Z,1.79
2023-01-19T10:41:41.132Z,1.79
2023-01-19T10:42:42.869Z,1.77
2023-01-19T10:43:45.698Z,1.75
2023-01-19T10:44:46.316Z,1.74
2023-01-19T10:45:48.132Z,1.7
2023-01-19T10:46:49.787Z,1.66
2023-01-19T10:47:51.545Z,1.64
2023-01-19T10:48:53.327Z,1.61
2023-01-19T10:49:55.108Z,1.61
2023-01-19T10:50:56.888Z,1.57
2023-01-19T10:51:58.636Z,1.57
2023-01-19T10:53:00.788Z,1.55
2023-01-19T10:54:02.132Z,1.57
2023-01-19T10:55:09.022Z,1.56
2023-01-19T10:56:10.751Z,1.53
2023-01-19T10:57:12.403Z,1.54
2023-01-19T10:58:14.173Z,1.53
2023-01-19T10:59:21.312Z,1.53
2023-01-19T11:00:22.756Z,1.56
2023-01-19T11:01:24.621Z,1.59
2023-01-19T11:02:26.650Z,1.63
2023-01-19T11:03:33.162Z,1.7
2023-01-19T11:04:34.927Z,1.74
2023-01-19T11:05:36.604Z,1.8
2023-01-19T11:06:38.311Z,1.86
2023-01-19T11:07:40.070Z,1.91
2023-01-19T11:08:41.788Z,1.97
2023-01-19T11:09:43.554Z,2.04
2023-01-19T11:10:45.256Z,2.09
2023-01-19T11:11:47.003Z,2.13
2023-01-19T11:12:48.719Z,2.16
2023-01-19T11:13:50.477Z,2.18
2023-01-19T11:14:52.174Z,2.19
2023-01-19T11:15:53.919Z,2.21
2023-01-19T11:17:03.955Z,2.21
2023-01-19T11:18:07.099Z,2.21
2023-01-19T11:19:07.398Z,2.22
2023-01-19T11:20:09.129Z,2.23
2023-01-19T11:21:10.846Z,2.23
2023-01-19T11:22:12.606Z,2.23
2023-01-19T11:23:14.317Z,2.24
2023-01-19T11:24:16.068Z,2.25
2023-01-19T11:25:17.786Z,2.24
2023-01-19T11:26:19.526Z,2.23
2023-01-19T11:27:21.269Z,2.23
2023-01-19T11:28:22.995Z,2.25
2023-01-19T11:29:24.751Z,2.26
2023-01-19T11:30:26.489Z,2.26
2023-01-19T11:31:28.403Z,2.27
2023-01-19T11:32:29.974Z,2.27
2023-01-19T11:33:31.688Z,2.28
2023-01-19T11:34:33.413Z,2.3
2023-01-19T11:35:35.158Z,2.29
2023-01-19T11:36:36.882Z,2.3
2023-01-19T11:37:38.645Z,2.32
2023-01-19T11:38:40.329Z,2.3
2023-01-19T11:39:42.063Z,2.31
2023-01-19T11:40:43.806Z,2.29
2023-01-19T11:41:45.538Z,2.28
2023-01-19T11:42:47.271Z,2.25
2023-01-19T11:43:49.501Z,2.24
2023-01-19T11:44:53.000Z,2.22
2023-01-19T11:45:57.731Z,2.2
2023-01-19T11:46:59.458Z,2.18
2023-01-19T11:48:01.387Z,2.15
2023-01-19T11:49:02.897Z,2.13
2023-01-19T11:50:05.721Z,2.11
2023-01-19T11:51:32.778Z,2.06
2023-01-19T11:52:35.947Z,2.04
2023-01-19T11:53:36.243Z,2.02
2023-01-19T11:54:37.979Z,1.99
2023-01-19T11:55:39.698Z,1.96
2023-01-19T11:56:41.436Z,1.94
2023-01-19T11:57:43.175Z,1.92
2023-01-19T11:58:44.916Z,1.9
2023-01-19T11:59:49.603Z,1.88
2023-01-19T12:00:48.477Z,1.85
2023-01-19T12:01:51.586Z,1.84
2023-01-19T12:02:51.826Z,1.84
2023-01-19T12:03:54.826Z,1.81
2023-01-19T12:04:55.303Z,1.81
2023-01-19T12:05:57.033Z,1.77
2023-01-19T12:06:58.793Z,1.76
2023-01-19T12:08:00.929Z,1.74
2023-01-19T12:09:07.500Z,1.72
2023-01-19T12:10:09.199Z,1.69
2023-01-19T12:11:10.934Z,1.67
2023-01-19T12:12:12.685Z,1.66
2023-01-19T12:13:14.390Z,1.63
2023-01-19T12:14:16.121Z,1.62
2023-01-19T12:15:17.873Z,1.6
2023-01-19T12:16:19.684Z,1.58
2023-01-19T12:17:21.405Z,1.56
2023-01-19T12:18:22.029Z,1.56
2023-01-19T12:19:24.819Z,1.54
2023-01-19T12:20:26.577Z,1.54
2023-01-19T12:21:28.295Z,1.54
2023-01-19T12:22:30.070Z,1.55
2023-01-19T12:23:30.856Z,1.56
2023-01-19T12:24:34.741Z,1.56
2023-01-19T12:25:35.224Z,1.57
2023-01-19T12:26:36.990Z,1.59
2023-01-19T12:27:38.713Z,1.62
2023-01-19T12:28:41.509Z,1.63
2023-01-19T12:29:42.395Z,1.65
2023-01-19T12:30:43.985Z,1.67
2023-01-19T12:31:45.713Z,1.7
2023-01-19T12:33:03.469Z,1.73
2023-01-19T12:34:33.115Z,1.77
2023-01-19T12:35:34.832Z,1.79
2023-01-19T12:36:36.624Z,1.82
2023-01-19T12:37:38.323Z,1.84
2023-01-19T12:38:40.125Z,1.88
2023-01-19T12:39:47.757Z,1.9
2023-01-19T12:40:48.689Z,1.93
2023-01-19T12:41:50.431Z,1.96
2023-01-19T12:42:52.159Z,1.98
2023-01-19T12:43:53.891Z,2.02
2023-01-19T12:44:55.615Z,2.03
2023-01-19T12:45:57.395Z,2.07
2023-01-19T12:46:59.073Z,2.09
2023-01-19T12:48:00.790Z,2.12
2023-01-19T12:49:02.540Z,2.16
2023-01-19T12:50:04.319Z,2.17
2023-01-19T12:51:06.006Z,2.2
2023-01-19T12:52:07.745Z,2.22
2023-01-19T12:53:09.467Z,2.26
2023-01-19T12:54:11.203Z,2.28
2023-01-19T12:55:12.928Z,2.31
2023-01-19T12:56:18.934Z,2.35
2023-01-19T12:57:19.557Z,2.37
2023-01-19T12:58:21.290Z,2.4
2023-01-19T12:59:22.989Z,2.44
2023-01-19T13:00:24.722Z,2.44
2023-01-19T13:01:26.632Z,2.46
2023-01-19T13:02:28.258Z,2.46
2023-01-19T13:03:29.923Z,2.47
2023-01-19T13:04:31.706Z,2.46
2023-01-19T13:05:34.848Z,2.47
2023-01-19T13:06:35.145Z,2.46
2023-01-19T13:07:36.849Z,2.44
2023-01-19T13:08:38.598Z,2.44
2023-01-19T13:09:40.323Z,2.44
2023-01-19T13:10:42.041Z,2.45
2023-01-19T13:11:48.433Z,2.44
2023-01-19T13:12:45.535Z,2.44
2023-01-19T13:13:47.241Z,2.44
2023-01-19T13:14:48.976Z,2.44
2023-01-19T13:15:50.780Z,2.43
2023-01-19T13:16:52.457Z,2.44
2023-01-19T13:17:54.185Z,2.45
2023-01-19T13:18:55.919Z,2.45
2023-01-19T13:19:57.664Z,2.46
2023-01-19T13:21:47.764Z,2.46
2023-01-19T13:22:52.387Z,2.47
2023-01-19T13:23:54.106Z,2.48
2023-01-19T13:24:56.986Z,2.48
2023-01-19T13:25:57.577Z,2.48
2023-01-19T13:26:59.537Z,2.5
2023-01-19T13:28:01.064Z,2.49
2023-01-19T13:29:02.746Z,2.5
2023-01-19T13:30:04.522Z,2.5
2023-01-19T13:31:06.361Z,2.5
2023-01-19T13:32:07.982Z,2.51
2023-01-19T13:33:10.896Z,2.5
2023-01-19T13:34:16.711Z,2.51
2023-01-19T13:35:19.522Z,2.5
2023-01-19T13:36:20.068Z,2.5
2023-01-19T13:37:21.780Z,2.5
2023-01-19T13:38:23.508Z,2.49
2023-01-19T13:39:25.244Z,2.5
2023-01-19T13:40:26.980Z,2.51
2023-01-19T13:41:28.718Z,2.5
2023-01-19T13:42:30.539Z,2.48
2023-01-19T13:43:32.189Z,2.49
2023-01-19T13:44:33.917Z,2.48
2023-01-19T13:45:40.052Z,2.48
2023-01-19T13:46:42.548Z,2.48
2023-01-19T13:47:44.271Z,2.46
2023-01-19T13:48:45.981Z,2.46
2023-01-19T13:49:47.733Z,2.45
2023-01-19T13:50:49.453Z,2.45
2023-01-19T13:51:51.193Z,2.44
2023-01-19T13:52:52.937Z,2.43
2023-01-19T13:55:32.483Z,2.42
2023-01-19T13:56:34.189Z,2.41
2023-01-19T13:57:35.909Z,2.4
2023-01-19T13:58:37.911Z,2.39
2023-01-19T13:59:39.412Z,2.37
2023-01-19T14:00:41.106Z,2.37
2023-01-19T14:01:43.130Z,2.36
2023-01-19T14:02:44.755Z,2.34
2023-01-19T14:03:46.325Z,2.32
2023-01-19T14:04:48.052Z,2.32
2023-01-19T14:05:49.846Z,2.31